Time;durP1;ratioP1;P1;durP2;ratioP2;P2;SDS_P1;SDS_P2;PMS_P1;PMS_P2;Temp;Humidity;BMP_temperature;BMP_pressure;BME280_temperature;BME280_humidity;BME280_pressure;Samples;Min_cycle;Max_cycle;Signal;HPM_P1;HPM_P2
2022/09/20 00:01:03;;;;;;;;;;;;;;;10.61;100.00;98017.93;1711572;82;24423;-86
2022/09/20 00:03:29;;;;;;;;;;;;;;;10.64;100.00;98016.38;1716898;82;20340;-87
2022/09/20 00:05:57;;;;;;;;;;;;;;;10.66;100.00;98018.41;1710232;81;24942;-86
2022/09/20 00:08:33;;;;;;;;;;;;;;;10.67;100.00;98016.63;1709643;82;21979;-87
2022/09/20 00:11:01;;;;;;;;;;;;;;;10.69;100.00;98015.54;1690612;83;26220;-90
2022/09/20 00:13:29;;;;;;;;;;;;;;;10.71;100.00;98019.36;1713020;82;24484;-89
2022/09/20 00:15:57;;;;;;;;;;;;;;;10.71;100.00;98014.13;1701729;82;20248;-86
2022/09/20 00:18:25;;;;;;;;;;;;;;;10.71;100.00;98014.96;1707441;82;25021;-87
2022/09/20 00:20:52;;;;;;;;;;;;;;;10.73;100.00;98018.30;1704484;82;21920;-90
2022/09/20 00:23:18;;;;;;;;;;;;;;;10.74;100.00;98019.98;1707376;82;26732;-90
2022/09/20 00:25:48;;;;;;;;;;;;;;;10.73;100.00;98018.30;1700177;82;24823;-89
2022/09/20 00:28:20;;;;;;;;;;;;;;;10.75;100.00;98023.39;1709365;82;20229;-89
2022/09/20 00:30:48;;;;;;;;;;;;;;;10.75;100.00;98016.85;1709852;82;24955;-90
2022/09/20 00:33:15;;;;;;;;;;;;;;;10.77;100.00;98013.19;1711860;82;22100;-89
2022/09/20 00:35:44;;;;;;;;;;;;;;;10.79;100.00;98015.69;1675998;85;25936;-89
2022/09/20 00:38:12;;;;;;;;;;;;;;;10.81;100.00;98022.92;1714070;82;24428;-90
2022/09/20 00:40:39;;;;;;;;;;;;;;;10.78;100.00;98022.70;1705997;82;20582;-89
2022/09/20 00:43:08;;;;;;;;;;;;;;;10.80;100.00;98021.28;1702930;82;25160;-90
2022/09/20 00:45:35;;;;;;;;;;;;;;;10.77;100.00;98021.03;1709400;82;22083;-89
2022/09/20 00:48:06;;;;;;;;;;;;;;;10.75;100.00;98028.16;1713669;82;25871;-86
2022/09/20 00:50:40;;;;;;;;;;;;;;;10.73;100.00;98027.46;1710667;82;25227;-86
2022/09/20 00:53:20;;;;;;;;;;;;;;;10.73;100.00;98020.92;1708577;82;20393;-89
2022/09/20 00:55:48;;;;;;;;;;;;;;;10.72;100.00;98023.17;1708165;82;24812;-89
2022/09/20 00:58:20;;;;;;;;;;;;;;;10.71;100.00;98020.19;1694374;82;21994;-89
2022/09/20 01:00:50;;;;;;;;;;;;;;;10.71;100.00;98023.28;1671036;85;26633;-90
2022/09/20 01:03:21;;;;;;;;;;;;;;;10.69;100.00;98019.97;1675460;85;25236;-90
2022/09/20 01:05:50;;;;;;;;;;;;;;;10.69;100.00;98022.08;1673793;85;20650;-90
2022/09/20 01:08:16;;;;;;;;;;;;;;;10.69;100.00;98022.59;1673773;85;24980;-89
2022/09/20 01:10:43;;;;;;;;;;;;;;;10.69;100.00;98014.23;1656160;85;37558;-91
2022/09/20 01:13:09;;;;;;;;;;;;;;;10.70;100.00;98017.69;1693931;84;25546;-87
2022/09/20 01:15:39;;;;;;;;;;;;;;;10.71;100.00;98020.66;1694162;84;24590;-88
2022/09/20 01:18:06;;;;;;;;;;;;;;;10.72;100.00;98015.80;1695640;84;20248;-87
2022/09/20 01:20:41;;;;;;;;;;;;;;;10.74;100.00;98020.45;1699354;84;25913;-90
2022/09/20 01:23:27;;;;;;;;;;;;;;;10.74;100.00;98019.14;1695634;83;21965;-90
2022/09/20 01:26:15;;;;;;;;;;;;;;;10.75;100.00;98022.92;1697102;84;25960;-90
2022/09/20 01:28:42;;;;;;;;;;;;;;;10.76;100.00;98023.77;1699124;84;24491;-90
2022/09/20 01:31:10;;;;;;;;;;;;;;;10.76;100.00;98018.05;1695061;84;20352;-89
2022/09/20 01:33:47;;;;;;;;;;;;;;;10.78;100.00;98027.10;1667083;85;25106;-86
2022/09/20 01:36:16;;;;;;;;;;;;;;;10.79;100.00;98027.47;1667094;84;22318;-86
2022/09/20 01:38:47;;;;;;;;;;;;;;;10.79;100.00;98030.92;1682181;83;26742;-86
2022/09/20 01:41:15;;;;;;;;;;;;;;;10.79;100.00;98025.69;1677793;85;24560;-87
2022/09/20 01:43:49;;;;;;;;;;;;;;;10.78;100.00;98021.88;1686795;83;20268;-86
2022/09/20 01:46:23;;;;;;;;;;;;;;;10.77;100.00;98031.97;1680629;85;27351;-86
2022/09/20 01:48:50;;;;;;;;;;;;;;;10.75;100.00;98028.16;1672859;85;22093;-86
2022/09/20 01:51:20;;;;;;;;;;;;;;;10.74;100.00;98029.14;1671986;85;27025;-89
2022/09/20 01:54:06;;;;;;;;;;;;;;;10.74;100.00;98027.83;1672440;84;25164;-89
2022/09/20 01:56:52;;;;;;;;;;;;;;;10.75;100.00;98029.47;1699027;84;20268;-89
2022/09/20 01:59:34;;;;;;;;;;;;;;;10.73;100.00;98035.78;1696228;84;24989;-89
2022/09/20 02:02:25;;;;;;;;;;;;;;;10.69;100.00;98028.63;1714084;83;22874;-89
2022/09/20 02:04:52;;;;;;;;;;;;;;;10.67;100.00;98025.78;1702725;82;26016;-89
2022/09/20 02:07:39;;;;;;;;;;;;;;;10.64;100.00;98026.00;1734543;81;24580;-89
2022/09/20 02:10:10;;;;;;;;;;;;;;;10.62;100.00;98023.53;1717310;82;20318;-90
2022/09/20 02:12:41;;;;;;;;;;;;;;;10.63;100.00;98023.05;1716338;83;24966;-89
2022/09/20 02:15:20;;;;;;;;;;;;;;;10.63;100.00;98019.13;1730260;81;22898;-89
2022/09/20 02:17:55;;;;;;;;;;;;;;;10.62;100.00;98024.00;1736593;81;25926;-88
2022/09/20 02:20:23;;;;;;;;;;;;;;;10.61;100.00;98019.70;1737809;81;24391;-88
2022/09/20 02:23:02;;;;;;;;;;;;;;;10.59;100.00;98020.29;1735244;81;20257;-89
2022/09/20 02:25:46;;;;;;;;;;;;;;;10.57;100.00;98024.35;1732862;81;25623;-88
2022/09/20 02:28:21;;;;;;;;;;;;;;;10.56;100.00;98023.16;1725584;81;22120;-89
2022/09/20 02:33:43;;;;;;;;;;;;;;;10.56;100.00;98025.77;1719567;82;25121;-89
2022/09/20 02:36:36;;;;;;;;;;;;;;;10.52;100.00;98023.88;1732975;82;20207;-89
2022/09/20 02:39:03;;;;;;;;;;;;;;;10.51;100.00;98023.98;1720022;82;25086;-89
2022/09/20 02:41:46;;;;;;;;;;;;;;;10.48;100.00;98025.88;1724453;82;22119;-88
2022/09/20 02:44:16;;;;;;;;;;;;;;;10.47;100.00;98030.73;1731272;82;26211;-89
2022/09/20 02:46:43;;;;;;;;;;;;;;;10.45;100.00;98030.52;1717266;82;24400;-86
2022/09/20 02:49:11;;;;;;;;;;;;;;;10.42;100.00;98035.48;1729050;82;20199;-86
2022/09/20 02:51:42;;;;;;;;;;;;;;;10.43;100.00;98037.63;1727225;82;26013;-86
2022/09/20 02:54:17;;;;;;;;;;;;;;;10.44;100.00;98038.00;1725592;82;22858;-88
2022/09/20 02:57:05;;;;;;;;;;;;;;;10.45;100.00;98040.98;1733898;82;26017;-88
2022/09/20 02:59:36;;;;;;;;;;;;;;;10.46;100.00;98042.17;1726585;82;24445;-88
2022/09/20 03:02:07;;;;;;;;;;;;;;;10.47;100.00;98041.20;1715367;82;20243;-88
2022/09/20 03:04:59;;;;;;;;;;;;;;;10.47;100.00;98042.52;1716102;83;24901;-90
2022/09/20 03:07:44;;;;;;;;;;;;;;;10.47;100.00;98046.44;1699338;82;22345;-89
2022/09/20 03:10:12;;;;;;;;;;;;;;;10.49;100.00;98047.64;1715067;82;26736;-89
2022/09/20 03:12:57;;;;;;;;;;;;;;;10.52;100.00;98050.04;1704738;84;24388;-89
2022/09/20 03:15:35;;;;;;;;;;;;;;;10.54;100.00;98053.83;1693793;84;20289;-89
2022/09/20 03:18:12;;;;;;;;;;;;;;;10.53;100.00;98049.56;1704068;84;24935;-86
2022/09/20 03:20:40;;;;;;;;;;;;;;;10.54;100.00;98052.05;1717316;83;22031;-86
2022/09/20 03:23:18;;;;;;;;;;;;;;;10.55;100.00;98054.19;1706371;83;26982;-89
2022/09/20 03:25:54;;;;;;;;;;;;;;;10.58;100.00;98051.36;1705539;83;25513;-89
2022/09/20 03:28:38;;;;;;;;;;;;;;;10.60;100.00;98059.44;1705082;84;20494;-89
2022/09/20 03:31:15;;;;;;;;;;;;;;;10.62;100.00;98059.33;1718503;83;25563;-89
2022/09/20 03:33:43;;;;;;;;;;;;;;;10.62;100.00;98056.23;1631079;86;21983;-89
2022/09/20 03:36:23;;;;;;;;;;;;;;;10.64;100.00;98060.02;1693747;83;26002;-89
2022/09/20 03:38:54;;;;;;;;;;;;;;;10.66;100.00;98063.37;1691841;83;24592;-90
2022/09/20 03:41:23;;;;;;;;;;;;;;;10.67;100.00;98067.66;1653136;86;20569;-90
2022/09/20 03:43:54;;;;;;;;;;;;;;;10.67;100.00;98062.42;1691553;82;25070;-90
2022/09/20 03:46:21;;;;;;;;;;;;;;;10.68;100.00;98056.24;1698521;83;22063;-90
2022/09/20 03:48:49;;;;;;;;;;;;;;;10.68;100.00;98057.55;1703974;83;25935;-90
2022/09/20 03:51:17;;;;;;;;;;;;;;;10.70;100.00;98063.02;1697728;83;24437;-89
2022/09/20 03:54:04;;;;;;;;;;;;;;;10.72;100.00;98067.66;1708007;82;20241;-89
2022/09/20 03:56:34;;;;;;;;;;;;;;;10.73;100.00;98071.13;1705784;83;25129;-89
2022/09/20 03:59:02;;;;;;;;;;;;;;;10.74;100.00;98063.16;1704347;80;22675;-89
2022/09/20 04:01:49;;;;;;;;;;;;;;;10.77;100.00;98062.08;1694662;82;25956;-90
2022/09/20 04:04:35;;;;;;;;;;;;;;;10.78;100.00;98062.44;1634472;87;20546;-87
2022/09/20 04:07:20;;;;;;;;;;;;;;;10.79;100.00;98062.80;1692184;84;20253;-87
2022/09/20 04:09:59;;;;;;;;;;;;;;;10.80;100.00;98062.66;1666827;84;20338;-90
2022/09/20 04:12:43;;;;;;;;;;;;;;;10.78;100.00;98064.59;1694516;82;22744;-89
2022/09/20 04:15:14;;;;;;;;;;;;;;;10.78;100.00;98065.05;1693780;82;26638;-88
2022/09/20 04:17:42;;;;;;;;;;;;;;;10.79;100.00;98068.88;1710553;82;24475;-89
2022/09/20 04:20:15;;;;;;;;;;;;;;;10.83;100.00;98066.38;1705378;82;20267;-89
2022/09/20 04:22:46;;;;;;;;;;;;;;;10.83;100.00;98071.61;1703841;82;25012;-89
2022/09/20 04:25:16;;;;;;;;;;;;;;;10.84;100.00;98068.05;1700046;82;21998;-89
2022/09/20 04:28:01;;;;;;;;;;;;;;;10.85;100.00;98065.79;1696820;82;25929;-89
2022/09/20 04:30:42;;;;;;;;;;;;;;;10.86;100.00;98074.45;1695431;82;24510;-89
2022/09/20 04:33:14;;;;;;;;;;;;;;;10.84;100.00;98078.52;1697986;82;20394;-88
2022/09/20 04:38:38;;;;;;;;;;;;;;;10.83;100.00;98074.70;1695437;82;22195;-89
2022/09/20 04:41:26;;;;;;;;;;;;;;;10.82;100.00;98082.19;1703075;82;26019;-89
2022/09/20 04:44:12;;;;;;;;;;;;;;;10.84;100.00;98080.30;1696279;82;25305;-90
2022/09/20 04:46:57;;;;;;;;;;;;;;;10.86;100.00;98084.45;1693491;82;20347;-89
2022/09/20 04:49:44;;;;;;;;;;;;;;;10.88;100.00;98079.94;1696259;82;25096;-90
2022/09/20 04:52:11;;;;;;;;;;;;;;;10.91;100.00;98082.31;1696658;82;22005;-89
2022/09/20 04:54:40;;;;;;;;;;;;;;;10.91;100.00;98084.09;1699754;82;26164;-89
2022/09/20 04:57:17;;;;;;;;;;;;;;;10.91;100.00;98088.85;1685750;83;24305;-90
2022/09/20 05:00:03;;;;;;;;;;;;;;;10.86;100.00;98097.53;1694782;82;20534;-87
2022/09/20 05:02:46;;;;;;;;;;;;;;;10.78;100.00;98095.16;1691674;84;24868;-86
2022/09/20 05:05:26;;;;;;;;;;;;;;;10.83;100.00;98095.64;1689428;82;22077;-87
2022/09/20 05:08:01;;;;;;;;;;;;;;;10.89;100.00;98098.62;1693032;83;22342;-86
2022/09/20 05:10:45;;;;;;;;;;;;;;;10.92;100.00;98092.30;1700922;82;24512;-86
2022/09/20 05:13:22;;;;;;;;;;;;;;;10.97;100.00;98101.95;1703305;82;20229;-85
2022/09/20 05:15:59;;;;;;;;;;;;;;;10.99;100.00;98103.16;1618050;88;24909;-90
2022/09/20 05:18:34;;;;;;;;;;;;;;;11.01;100.00;98106.02;1614684;88;23244;-90
2022/09/20 05:21:02;;;;;;;;;;;;;;;11.00;100.00;98105.66;1684795;82;26869;-90
2022/09/20 05:23:32;;;;;;;;;;;;;;;11.00;100.00;98104.83;1700299;82;24430;-90
2022/09/20 05:26:16;;;;;;;;;;;;;;;10.99;100.00;98109.70;1691224;82;20220;-90
2022/09/20 05:28:44;;;;;;;;;;;;;;;10.98;100.00;98116.72;1695975;82;25022;-89
2022/09/20 05:31:29;;;;;;;;;;;;;;;10.96;100.00;98118.64;1703047;82;21969;-90
2022/09/20 05:33:57;;;;;;;;;;;;;;;10.96;100.00;98118.64;1698967;82;25946;-89
2022/09/20 05:36:34;;;;;;;;;;;;;;;10.95;100.00;98122.20;1686305;82;24477;-90
2022/09/20 05:39:08;;;;;;;;;;;;;;;10.96;100.00;98121.25;1640761;86;20318;-90
2022/09/20 05:41:41;;;;;;;;;;;;;;;10.95;100.00;98122.20;1634588;86;24913;-86
2022/09/20 05:44:20;;;;;;;;;;;;;;;10.94;100.00;98127.07;1679508;82;21991;-89
2022/09/20 05:47:05;;;;;;;;;;;;;;;10.95;100.00;98122.20;1695028;82;25962;-86
2022/09/20 05:49:33;;;;;;;;;;;;;;;10.94;100.00;98128.38;1699969;82;24439;-86
2022/09/20 05:52:01;;;;;;;;;;;;;;;10.94;100.00;98125.77;1698626;82;20379;-86
2022/09/20 05:54:44;;;;;;;;;;;;;;;10.95;100.00;98127.44;1689335;84;24889;-86
2022/09/20 05:57:14;;;;;;;;;;;;;;;10.97;100.00;98126.83;1688043;84;23027;-87
2022/09/20 05:59:59;;;;;;;;;;;;;;;10.98;100.00;98126.34;1696867;80;26213;-87
2022/09/20 06:02:33;;;;;;;;;;;;;;;10.97;100.00;98125.52;1716033;83;24674;-89
2022/09/20 06:05:18;;;;;;;;;;;;;;;10.98;100.00;98136.35;1709150;83;20258;-90
2022/09/20 06:08:02;;;;;;;;;;;;;;;10.96;100.00;98132.20;1693805;84;25028;-89
2022/09/20 06:10:40;;;;;;;;;;;;;;;10.96;100.00;98133.51;1697351;84;21970;-89
2022/09/20 06:13:08;;;;;;;;;;;;;;;10.96;100.00;98130.89;1691962;84;26047;-89
2022/09/20 06:15:53;;;;;;;;;;;;;;;10.97;100.00;98137.77;1726901;82;24430;-89
2022/09/20 06:18:21;;;;;;;;;;;;;;;10.97;100.00;98137.77;1717321;83;20552;-89
2022/09/20 06:21:01;;;;;;;;;;;;;;;10.97;100.00;98137.30;1704536;82;25045;-89
2022/09/20 06:23:27;;;;;;;;;;;;;;;10.97;100.00;98137.77;1699743;83;21994;-89
2022/09/20 06:26:07;;;;;;;;;;;;;;;10.98;100.00;98139.45;1687560;84;25992;-89
2022/09/20 06:28:43;;;;;;;;;;;;;;;10.97;100.00;98141.22;1693760;84;24423;-89
2022/09/20 06:31:10;;;;;;;;;;;;;;;10.97;100.00;98140.39;1675580;84;20264;-89
2022/09/20 06:33:44;;;;;;;;;;;;;;;10.97;100.00;98139.91;1696284;84;25033;-88
2022/09/20 06:42:00;;;;;;;;;;;;;;;10.92;100.00;98147.28;1687070;83;24303;-86
2022/09/20 06:44:27;;;;;;;;;;;;;;;10.90;100.00;98146.59;1697928;84;20530;-86
2022/09/20 06:47:00;;;;;;;;;;;;;;;10.90;100.00;98149.20;1701452;84;25243;-86
2022/09/20 06:49:31;;;;;;;;;;;;;;;10.95;100.00;98150.16;1725196;82;22744;-86
2022/09/20 06:51:54;;;;;;;;;;;;;;;10.98;100.00;98151.22;1695616;84;26242;-86
2022/09/20 06:54:29;;;;;;;;;;;;;;;10.99;100.00;98152.42;1708090;82;24434;-86
2022/09/20 06:56:56;;;;;;;;;;;;;;;11.04;100.00;98152.91;1693004;82;20542;-86
2022/09/20 06:59:22;;;;;;;;;;;;;;;11.11;100.00;98157.21;1691983;84;25427;-86
2022/09/20 07:01:48;;;;;;;;;;;;;;;11.17;100.00;98154.13;1692430;83;20277;-86
2022/09/20 07:04:15;;;;;;;;;;;;;;;11.19;100.00;98153.04;1703647;84;26805;-86
2022/09/20 07:06:41;;;;;;;;;;;;;;;11.25;100.00;98160.43;1706455;82;24512;-86
2022/09/20 07:09:09;;;;;;;;;;;;;;;11.28;100.00;98159.38;1678090;83;20326;-86
2022/09/20 07:11:35;;;;;;;;;;;;;;;11.31;100.00;98156.50;1677237;84;25111;-86
2022/09/20 07:14:01;;;;;;;;;;;;;;;11.36;100.00;98162.70;1683915;83;20311;-86
2022/09/20 07:16:35;;;;;;;;;;;;;;;11.38;100.00;98160.80;1681774;84;26104;-90
2022/09/20 07:19:04;;;;;;;;;;;;;;;11.36;100.00;98166.15;1672458;84;25276;-90
2022/09/20 07:21:30;;;;;;;;;;;;;;;11.36;100.00;98171.86;1676508;84;20377;-90
2022/09/20 07:23:56;;;;;;;;;;;;;;;11.38;100.00;98168.66;1675460;84;24940;-89
2022/09/20 07:26:27;;;;;;;;;;;;;;;11.39;100.00;98172.48;1677320;84;21991;-90
2022/09/20 07:28:56;;;;;;;;;;;;;;;11.45;100.00;98181.66;1675761;83;26872;-90
2022/09/20 07:31:24;;;;;;;;;;;;;;;11.46;100.00;98188.53;1678136;84;24370;-90
2022/09/20 07:33:52;;;;;;;;;;;;;;;11.46;100.00;98189.38;1673151;84;20347;-90
2022/09/20 07:36:18;;;;;;;;;;;;;;;11.44;100.00;98192.61;1679541;83;25150;-90
2022/09/20 07:38:53;;;;;;;;;;;;;;;11.45;100.00;98199.52;1681587;84;20840;-89
2022/09/20 07:41:30;;;;;;;;;;;;;;;11.42;100.00;98196.28;1687020;83;25997;-90
2022/09/20 07:44:20;;;;;;;;;;;;;;;11.50;100.00;98200.47;1674067;84;23932;-89
2022/09/20 07:46:48;;;;;;;;;;;;;;;11.57;100.00;98196.41;1710180;82;20243;-89
2022/09/20 07:49:16;;;;;;;;;;;;;;;11.56;100.00;98203.46;1712418;82;25494;-89
2022/09/20 07:51:42;;;;;;;;;;;;;;;11.60;100.00;98205.36;1719818;82;21964;-89
2022/09/20 07:54:08;;;;;;;;;;;;;;;11.62;100.00;98209.98;1714951;82;20958;-89
2022/09/20 07:56:42;;;;;;;;;;;;;;;11.62;100.00;98216.53;1703445;82;24391;-89
2022/09/20 07:59:09;;;;;;;;;;;;;;;11.67;100.00;98215.23;1706543;82;20279;-89
2022/09/20 08:01:44;;;;;;;;;;;;;;;11.73;100.00;98218.72;1709040;81;25153;-89
2022/09/20 08:04:16;;;;;;;;;;;;;;;11.75;100.00;98213.36;1707146;84;22156;-89
2022/09/20 08:06:45;;;;;;;;;;;;;;;11.74;100.00;98216.46;1688923;84;26207;-89
2022/09/20 08:09:21;;;;;;;;;;;;;;;11.71;100.00;98218.47;1678618;84;24531;-89
2022/09/20 08:11:47;;;;;;;;;;;;;;;11.69;100.00;98224.30;1690169;84;20335;-89
2022/09/20 08:14:21;;;;;;;;;;;;;;;11.67;100.00;98230.16;1704030;83;24947;-89
2022/09/20 08:16:50;;;;;;;;;;;;;;;11.60;100.00;98230.26;1701006;84;22123;-89
2022/09/20 08:19:19;;;;;;;;;;;;;;;11.58;100.00;98225.59;1686926;84;26001;-89
2022/09/20 08:22:01;;;;;;;;;;;;;;;11.56;100.00;98227.05;1692538;84;24727;-89
2022/09/20 08:24:34;;;;;;;;;;;;;;;11.55;100.00;98224.54;1676854;84;20249;-89
2022/09/20 08:26:59;;;;;;;;;;;;;;;11.54;100.00;98229.41;1691915;84;25125;-89
2022/09/20 08:29:26;;;;;;;;;;;;;;;11.57;100.00;98230.47;1684849;84;22037;-89
2022/09/20 08:31:51;;;;;;;;;;;;;;;11.68;100.00;98239.66;1685802;84;21036;-89
2022/09/20 08:34:17;;;;;;;;;;;;;;;11.77;100.00;98230.30;1689067;84;20255;-89
2022/09/20 08:36:45;;;;;;;;;;;;;;;11.81;100.00;98223.38;1692953;82;20636;-89
2022/09/20 08:39:12;;;;;;;;;;;;;;;11.86;100.00;98225.63;1692393;84;24814;-89
2022/09/20 08:42:02;;;;;;;;;;;;;;;11.94;100.00;98225.41;1679619;84;22687;-89
2022/09/20 08:44:36;;;;;;;;;;;;;;;11.98;100.00;98226.83;1677294;85;27007;-90
2022/09/20 08:47:13;;;;;;;;;;;;;;;12.08;100.00;98227.77;1712930;83;24565;-89
2022/09/20 08:49:39;;;;;;;;;;;;;;;12.19;100.00;98232.63;1669728;85;20467;-89
2022/09/20 08:52:05;;;;;;;;;;;;;;;12.23;100.00;98230.95;1695510;82;20235;-89
2022/09/20 08:54:39;;;;;;;;;;;;;;;12.29;100.00;98233.09;1700868;83;20303;-89
2022/09/20 08:57:11;;;;;;;;;;;;;;;12.35;100.00;98232.59;1693071;83;26954;-90
2022/09/20 08:59:37;;;;;;;;;;;;;;;12.33;100.00;98234.50;1706407;83;24413;-89
2022/09/20 09:02:05;;;;;;;;;;;;;;;12.30;100.00;98235.23;1712025;81;20578;-90
2022/09/20 09:04:37;;;;;;;;;;;;;;;12.28;100.00;98227.95;1711505;83;25052;-90
2022/09/20 09:07:15;;;;;;;;;;;;;;;12.23;100.00;98229.64;1713290;83;22102;-90
2022/09/20 09:09:42;;;;;;;;;;;;;;;12.19;100.00;98231.31;1711687;81;26646;-90
2022/09/20 09:12:16;;;;;;;;;;;;;;;12.13;100.00;98232.16;1710244;83;25281;-90
2022/09/20 09:15:00;;;;;;;;;;;;;;;12.11;100.00;98229.30;1707286;83;20358;-90
2022/09/20 09:17:30;;;;;;;;;;;;;;;12.05;100.00;98233.27;1726691;82;25180;-89
2022/09/20 09:19:57;;;;;;;;;;;;;;;12.04;100.00;98228.13;1707737;84;22054;-89
2022/09/20 09:22:26;;;;;;;;;;;;;;;12.10;100.00;98233.73;1731792;81;26780;-89
2022/09/20 09:25:08;;;;;;;;;;;;;;;12.12;100.00;98237.52;1727542;82;24498;-89
2022/09/20 09:27:37;;;;;;;;;;;;;;;12.13;100.00;98230.02;1721585;81;20236;-89
2022/09/20 09:30:04;;;;;;;;;;;;;;;12.22;100.00;98224.53;1735384;81;24991;-89
2022/09/20 09:32:31;;;;;;;;;;;;;;;12.26;100.00;98225.47;1732702;82;21975;-89
2022/09/20 09:35:19;;;;;;;;;;;;;;;12.27;100.00;98223.69;1728512;82;26057;-89
2022/09/20 09:37:56;;;;;;;;;;;;;;;12.36;100.00;98214.59;1648191;85;24508;-89
2022/09/20 09:40:22;;;;;;;;;;;;;;;12.43;100.00;98213.14;1647008;85;20357;-89
2022/09/20 09:42:58;;;;;;;;;;;;;;;12.52;100.00;98220.27;1655394;83;25056;-89
2022/09/20 09:45:29;;;;;;;;;;;;;;;12.66;100.00;98220.44;1690840;83;21851;-89
2022/09/20 09:47:56;;;;;;;;;;;;;;;12.74;100.00;98213.26;1708543;81;26080;-89
2022/09/20 09:50:27;;;;;;;;;;;;;;;12.83;100.00;98210.70;1712649;81;24595;-89
2022/09/20 09:52:58;;;;;;;;;;;;;;;12.89;100.00;98211.52;1708798;82;20649;-89
2022/09/20 09:55:28;;;;;;;;;;;;;;;13.10;100.00;98208.05;1712013;82;26064;-89
2022/09/20 09:57:56;;;;;;;;;;;;;;;13.16;100.00;98207.58;1717434;82;22038;-89
2022/09/20 10:00:23;;;;;;;;;;;;;;;13.26;100.00;98200.09;1714157;82;26039;-89
2022/09/20 10:02:53;;;;;;;;;;;;;;;13.37;100.00;98200.50;1712027;82;20204;-89
2022/09/20 10:05:24;;;;;;;;;;;;;;;13.46;100.00;98202.37;1715997;82;20477;-89
2022/09/20 10:07:54;;;;;;;;;;;;;;;13.45;100.00;98195.44;1710159;82;24501;-90
2022/09/20 10:10:32;;;;;;;;;;;;;;;13.55;100.00;98195.48;1705659;82;22896;-90
2022/09/20 10:13:16;;;;;;;;;;;;;;;13.64;100.00;98191.58;1712520;81;25966;-90
2022/09/20 10:16:04;;;;;;;;;;;;;;;13.66;100.00;98189.66;1710462;82;24502;-88
2022/09/20 10:18:32;;;;;;;;;;;;;;;13.68;100.00;98183.80;1715859;82;20355;-89
2022/09/20 10:21:06;;;;;;;;;;;;;;;13.74;100.00;98187.69;1713097;82;24933;-87
2022/09/20 10:23:40;;;;;;;;;;;;;;;13.74;100.00;98189.84;1718995;82;22002;-86
2022/09/20 10:26:08;;;;;;;;;;;;;;;13.64;100.00;98190.26;1710610;83;25942;-86
2022/09/20 10:28:50;;;;;;;;;;;;;;;13.54;100.00;98195.97;1715647;82;24575;-86
2022/09/20 10:31:21;;;;;;;;;;;;;;;13.48;100.00;98196.48;1729126;81;20243;-87
2022/09/20 10:33:49;;;;;;;;;;;;;;;13.31;100.00;98200.55;1707626;82;25969;-86
2022/09/20 10:36:19;;;;;;;;;;;;;;;13.20;100.00;98206.38;1705523;81;22066;-86
2022/09/20 10:38:47;;;;;;;;;;;;;;;13.04;100.00;98205.97;1713464;82;26037;-86
2022/09/20 10:44:04;;;;;;;;;;;;;;;12.80;100.00;98211.45;1709925;82;20176;-87
2022/09/20 10:46:35;;;;;;;;;;;;;;;12.73;100.00;98212.90;1715552;81;25738;-90
2022/09/20 10:49:10;;;;;;;;;;;;;;;12.75;100.00;98213.62;1713218;82;22040;-89
2022/09/20 10:51:52;;;;;;;;;;;;;;;12.78;100.00;98214.66;1704166;82;26135;-90
2022/09/20 10:54:23;;;;;;;;;;;;;;;12.88;100.00;98215.57;1712152;83;24594;-90
2022/09/20 10:56:55;;;;;;;;;;;;;;;12.97;100.00;98214.36;1708206;83;20256;-90
2022/09/20 10:59:27;;;;;;;;;;;;;;;13.13;100.00;98213.10;1714915;82;24655;-90
2022/09/20 11:01:56;;;;;;;;;;;;;;;13.26;100.00;98211.93;1711060;81;22617;-89
2022/09/20 11:04:29;;;;;;;;;;;;;;;13.32;100.00;98211.41;1728147;82;25948;-90
2022/09/20 11:07:02;;;;;;;;;;;;;;;13.34;100.00;98209.50;1709112;83;24610;-90
2022/09/20 11:09:31;;;;;;;;;;;;;;;13.34;100.00;98211.30;1720355;83;20183;-90
2022/09/20 11:12:16;;;;;;;;;;;;;;;13.34;100.00;98212.13;1720844;82;25688;-90
2022/09/20 11:15:00;;;;;;;;;;;;;;;13.40;100.00;98218.19;1703813;83;22801;-90
2022/09/20 11:17:40;;;;;;;;;;;;;;;13.43;100.00;98218.39;1715794;82;26208;-90
2022/09/20 11:20:21;;;;;;;;;;;;;;;13.37;100.00;98224.16;1694817;83;24597;-90
2022/09/20 11:22:51;;;;;;;;;;;;;;;13.19;100.00;98223.10;1717928;82;20170;-89
2022/09/20 11:25:35;;;;;;;;;;;;;;;12.98;100.00;98230.44;1728505;82;25846;-89
2022/09/20 11:28:09;;;;;;;;;;;;;;;12.98;100.00;98227.02;1718265;82;22617;-90
2022/09/20 11:30:38;;;;;;;;;;;;;;;13.03;100.00;98229.25;1737859;82;26046;-90
2022/09/20 11:33:09;;;;;;;;;;;;;;;13.16;100.00;98225.97;1724032;82;24528;-90
2022/09/20 11:36:00;;;;;;;;;;;;;;;13.32;100.00;98224.55;1692799;83;20246;-90
2022/09/20 11:38:37;;;;;;;;;;;;;;;13.41;100.00;98224.28;1715715;83;25849;-90
2022/09/20 11:41:07;;;;;;;;;;;;;;;13.49;100.00;98230.18;1719971;83;22051;-90
2022/09/20 11:43:44;;;;;;;;;;;;;;;13.61;100.00;98222.57;1719492;83;26845;-90
2022/09/20 11:46:25;;;;;;;;;;;;;;;13.65;100.00;98224.80;1710397;83;24514;-90
2022/09/20 11:48:53;;;;;;;;;;;;;;;13.74;100.00;98225.83;1661258;86;20705;-90
2022/09/20 11:51:41;;;;;;;;;;;;;;;13.85;100.00;98224.91;1708086;83;26333;-90
2022/09/20 11:54:21;;;;;;;;;;;;;;;13.80;100.00;98226.63;1709545;82;22821;-91
2022/09/20 11:56:57;;;;;;;;;;;;;;;13.92;100.00;98224.70;1682894;84;26004;-90
2022/09/20 11:59:37;;;;;;;;;;;;;;;14.05;100.00;98229.26;1689594;84;24459;-90
2022/09/20 12:02:06;;;;;;;;;;;;;;;14.16;100.00;98235.73;1677815;84;20229;-87
2022/09/20 12:04:34;;;;;;;;;;;;;;;14.22;100.00;98232.56;1688928;83;25119;-91
2022/09/20 12:07:08;;;;;;;;;;;;;;;14.15;100.00;98226.16;1691245;82;23004;-90
2022/09/20 12:09:39;;;;;;;;;;;;;;;14.03;100.00;98228.06;1682875;84;26886;-90
2022/09/20 12:12:26;;;;;;;;;;;;;;;13.93;100.00;98228.52;1693665;83;24421;-90
2022/09/20 12:14:54;;;;;;;;;;;;;;;13.87;100.00;98224.27;1695302;83;20185;-90
2022/09/20 12:17:44;;;;;;;;;;;;;;;13.80;100.00;98225.30;1695711;83;25131;-90
2022/09/20 12:23:17;;;;;;;;;;;;;;;13.78;100.00;98224.11;1697633;83;26043;-90
2022/09/20 12:25:45;;;;;;;;;;;;;;;13.77;100.00;98221.12;1690523;84;25119;-90
2022/09/20 12:28:13;;;;;;;;;;;;;;;13.75;100.00;98219.09;1670345;85;20271;-90
2022/09/20 12:30:39;;;;;;;;;;;;;;;13.69;100.00;98216.19;1674501;84;24988;-90
2022/09/20 12:33:06;;;;;;;;;;;;;;;13.60;100.00;98216.95;1688797;84;20842;-90
2022/09/20 12:35:44;;;;;;;;;;;;;;;13.64;100.00;98222.30;1680084;84;26040;-90
2022/09/20 12:38:22;;;;;;;;;;;;;;;13.65;100.00;98220.86;1700857;83;24511;-90
2022/09/20 12:41:08;;;;;;;;;;;;;;;13.66;100.00;98223.84;1680364;85;20493;-90
2022/09/20 12:43:39;;;;;;;;;;;;;;;13.67;100.00;98230.77;1680771;85;25117;-90
2022/09/20 12:46:05;;;;;;;;;;;;;;;13.72;100.00;98226.43;1675166;85;22067;-91
2022/09/20 12:48:35;;;;;;;;;;;;;;;13.75;100.00;98226.16;1695038;83;26800;-91
2022/09/20 12:54:06;;;;;;;;;;;;;;;13.69;100.00;98227.52;1690186;84;20335;-90
2022/09/20 12:56:38;;;;;;;;;;;;;;;13.70;100.00;98216.03;1693970;84;25799;-90
2022/09/20 12:59:06;;;;;;;;;;;;;;;13.82;100.00;98227.30;1696090;84;22001;-90
2022/09/20 13:01:34;;;;;;;;;;;;;;;13.93;100.00;98215.84;1690970;84;26042;-90
2022/09/20 13:04:21;;;;;;;;;;;;;;;13.96;100.00;98222.17;1684842;84;24514;-90
2022/09/20 13:06:49;;;;;;;;;;;;;;;14.02;100.00;98237.44;1693435;84;20215;-90
2022/09/20 13:09:21;;;;;;;;;;;;;;;14.08;100.00;98240.81;1694464;84;25770;-90
2022/09/20 13:11:55;;;;;;;;;;;;;;;14.03;100.00;98237.75;1693924;84;22264;-90
2022/09/20 13:14:23;;;;;;;;;;;;;;;13.88;100.00;98250.45;1694276;84;26067;-90
2022/09/20 13:17:08;;;;;;;;;;;;;;;13.56;100.00;98244.00;1695005;84;24473;-90
2022/09/20 13:19:37;;;;;;;;;;;;;;;13.39;100.00;98238.86;1694939;84;20476;-91
2022/09/20 13:22:22;;;;;;;;;;;;;;;13.38;100.00;98241.13;1693349;84;24974;-90
2022/09/20 13:24:50;;;;;;;;;;;;;;;13.33;100.00;98244.62;1692982;83;22063;-90
2022/09/20 13:27:31;;;;;;;;;;;;;;;13.31;100.00;98236.53;1694849;84;25818;-91